Canton, Mississippi
Current Conditions -  °F | °C
As of 6:54 PM on Saturday 20 Dec 2014 (Local Time) from KJAN Reporting Station
Few Clouds Few Clouds  
Wind Chill: 45°   Ceiling: Unl
Heat Index: 45°   Visibility: 10mi
Dew Point: 41°   Wind: 0mph
Humidity: 86%   Direction: NA
Pressure: 30.19"   Gusts: NA
Location:  32.61°N, 90.03°W
Report Text: KJAN 210054Z 00000KT 10SM FEW250 07/05 A3019 RMK AO2 SLP222 T00720050
Loading
Personal Weather Stations






























Interactive Weather Map New forecast layout! Learn more

10-Day Weather Forecast

Advertisements
Track Severe Weather on mobile